Terminal Aerodrome Forecast
Issued by NWS

Home | Current Version | Previous Version | Text Only | Print | Product List | Glossary On
Versions: 1 2 3 4 5 6 7 8 9 10 11 12 13
000
FTUS42 KMLB 232320
TAFLEE
TAF
KLEE 232320Z 2400/2424 11003KT P6SM SKC
      TEMPO 2410/2413 3SM BR
     FM241600 14006KT P6SM SCT045=

USA.gov is the U.S. government's official web portal to all federal, state and local government web resources and services.